sensor_id;sensor_type;location;lat;lon;timestamp;P1;durP1;ratioP1;P2;durP2;ratioP2
6121;SDS011;3091;51.506;7.672;2024-02-15T00:00:04;34.83;;;32.63;;
6121;SDS011;3091;51.506;7.672;2024-02-15T00:02:32;35.67;;;33.30;;
6121;SDS011;3091;51.506;7.672;2024-02-15T00:04:58;35.33;;;32.83;;
6121;SDS011;3091;51.506;7.672;2024-02-15T00:07:24;34.70;;;32.27;;
6121;SDS011;3091;51.506;7.672;2024-02-15T00:09:51;34.60;;;32.30;;
6121;SDS011;3091;51.506;7.672;2024-02-15T00:12:19;36.43;;;33.63;;
6121;SDS011;3091;51.506;7.672;2024-02-15T00:14:45;34.63;;;32.23;;
6121;SDS011;3091;51.506;7.672;2024-02-15T00:17:11;34.07;;;31.77;;
6121;SDS011;3091;51.506;7.672;2024-02-15T00:19:37;34.60;;;32.30;;
6121;SDS011;3091;51.506;7.672;2024-02-15T00:22:05;34.50;;;32.10;;
6121;SDS011;3091;51.506;7.672;2024-02-15T00:24:31;35.80;;;33.30;;
6121;SDS011;3091;51.506;7.672;2024-02-15T00:26:57;36.37;;;33.97;;
6121;SDS011;3091;51.506;7.672;2024-02-15T00:29:23;40.67;;;38.07;;
6121;SDS011;3091;51.506;7.672;2024-02-15T00:31:51;40.60;;;38.00;;
6121;SDS011;3091;51.506;7.672;2024-02-15T00:34:17;42.20;;;39.70;;
6121;SDS011;3091;51.506;7.672;2024-02-15T00:36:43;39.67;;;37.27;;
6121;SDS011;3091;51.506;7.672;2024-02-15T00:39:09;39.20;;;36.90;;
6121;SDS011;3091;51.506;7.672;2024-02-15T00:41:36;36.27;;;33.87;;
6121;SDS011;3091;51.506;7.672;2024-02-15T00:44:06;33.10;;;30.80;;
6121;SDS011;3091;51.506;7.672;2024-02-15T00:46:33;38.13;;;35.60;;
6121;SDS011;3091;51.506;7.672;2024-02-15T00:49:00;35.07;;;32.77;;
6121;SDS011;3091;51.506;7.672;2024-02-15T00:51:26;36.03;;;33.63;;
6121;SDS011;3091;51.506;7.672;2024-02-15T00:53:52;34.83;;;32.60;;
6121;SDS011;3091;51.506;7.672;2024-02-15T00:56:18;37.50;;;35.10;;
6121;SDS011;3091;51.506;7.672;2024-02-15T00:58:44;40.00;;;37.30;;
6121;SDS011;3091;51.506;7.672;2024-02-15T01:01:10;40.87;;;38.17;;
6121;SDS011;3091;51.506;7.672;2024-02-15T01:03:38;39.03;;;36.43;;
6121;SDS011;3091;51.506;7.672;2024-02-15T01:06:04;41.17;;;38.40;;
6121;SDS011;3091;51.506;7.672;2024-02-15T01:08:30;39.90;;;37.30;;
6121;SDS011;3091;51.506;7.672;2024-02-15T01:10:59;39.07;;;36.47;;
6121;SDS011;3091;51.506;7.672;2024-02-15T01:13:26;43.00;;;40.20;;
6121;SDS011;3091;51.506;7.672;2024-02-15T01:15:52;40.20;;;37.50;;
6121;SDS011;3091;51.506;7.672;2024-02-15T01:18:20;38.30;;;35.60;;
6121;SDS011;3091;51.506;7.672;2024-02-15T01:20:46;39.83;;;37.13;;
6121;SDS011;3091;51.506;7.672;2024-02-15T01:23:12;41.67;;;38.87;;
6121;SDS011;3091;51.506;7.672;2024-02-15T01:25:41;39.30;;;36.70;;
6121;SDS011;3091;51.506;7.672;2024-02-15T01:28:07;37.70;;;35.20;;
6121;SDS011;3091;51.506;7.672;2024-02-15T01:30:33;37.20;;;34.70;;
6121;SDS011;3091;51.506;7.672;2024-02-15T01:33:00;39.00;;;36.47;;
6121;SDS011;3091;51.506;7.672;2024-02-15T01:35:26;41.67;;;38.93;;
6121;SDS011;3091;51.506;7.672;2024-02-15T01:37:53;42.00;;;39.00;;
6121;SDS011;3091;51.506;7.672;2024-02-15T01:40:20;41.30;;;38.60;;
6121;SDS011;3091;51.506;7.672;2024-02-15T01:42:47;40.00;;;37.40;;
6121;SDS011;3091;51.506;7.672;2024-02-15T01:45:14;40.97;;;38.27;;
6121;SDS011;3091;51.506;7.672;2024-02-15T01:47:41;40.13;;;37.53;;
6121;SDS011;3091;51.506;7.672;2024-02-15T01:50:08;38.10;;;35.50;;
6121;SDS011;3091;51.506;7.672;2024-02-15T01:52:35;38.93;;;36.40;;
6121;SDS011;3091;51.506;7.672;2024-02-15T01:55:01;43.27;;;40.33;;
6121;SDS011;3091;51.506;7.672;2024-02-15T01:57:33;41.50;;;38.90;;
6121;SDS011;3091;51.506;7.672;2024-02-15T01:59:59;40.60;;;38.00;;
6121;SDS011;3091;51.506;7.672;2024-02-15T02:02:25;36.70;;;34.23;;
6121;SDS011;3091;51.506;7.672;2024-02-15T02:04:54;36.17;;;33.67;;
6121;SDS011;3091;51.506;7.672;2024-02-15T02:07:20;36.37;;;33.97;;
6121;SDS011;3091;51.506;7.672;2024-02-15T02:09:46;36.13;;;33.83;;
6121;SDS011;3091;51.506;7.672;2024-02-15T02:12:12;36.80;;;34.40;;
6121;SDS011;3091;51.506;7.672;2024-02-15T02:14:39;36.90;;;34.40;;
6121;SDS011;3091;51.506;7.672;2024-02-15T02:17:12;36.93;;;34.40;;
6121;SDS011;3091;51.506;7.672;2024-02-15T02:19:41;38.27;;;35.67;;
6121;SDS011;3091;51.506;7.672;2024-02-15T02:22:08;34.93;;;32.67;;
6121;SDS011;3091;51.506;7.672;2024-02-15T02:24:36;35.10;;;32.80;;
6121;SDS011;3091;51.506;7.672;2024-02-15T02:27:07;34.57;;;32.37;;
6121;SDS011;3091;51.506;7.672;2024-02-15T02:29:33;36.87;;;34.37;;
6121;SDS011;3091;51.506;7.672;2024-02-15T02:31:59;35.13;;;32.80;;
6121;SDS011;3091;51.506;7.672;2024-02-15T02:34:25;36.23;;;33.77;;
6121;SDS011;3091;51.506;7.672;2024-02-15T02:36:52;35.47;;;32.83;;
6121;SDS011;3091;51.506;7.672;2024-02-15T02:39:18;36.00;;;33.60;;
6121;SDS011;3091;51.506;7.672;2024-02-15T02:41:44;35.13;;;32.83;;
6121;SDS011;3091;51.506;7.672;2024-02-15T02:44:10;38.30;;;36.00;;
6121;SDS011;3091;51.506;7.672;2024-02-15T02:46:36;35.47;;;33.27;;
6121;SDS011;3091;51.506;7.672;2024-02-15T02:49:02;37.77;;;35.03;;
6121;SDS011;3091;51.506;7.672;2024-02-15T02:51:28;37.33;;;35.07;;
6121;SDS011;3091;51.506;7.672;2024-02-15T02:53:55;35.00;;;32.80;;
6121;SDS011;3091;51.506;7.672;2024-02-15T02:56:21;35.20;;;32.90;;
6121;SDS011;3091;51.506;7.672;2024-02-15T02:58:47;35.13;;;32.83;;
6121;SDS011;3091;51.506;7.672;2024-02-15T03:01:13;34.50;;;32.10;;
6121;SDS011;3091;51.506;7.672;2024-02-15T03:03:39;36.83;;;34.33;;
6121;SDS011;3091;51.506;7.672;2024-02-15T03:06:05;35.57;;;33.17;;
6121;SDS011;3091;51.506;7.672;2024-02-15T03:08:31;34.70;;;32.30;;
6121;SDS011;3091;51.506;7.672;2024-02-15T03:10:57;34.40;;;32.10;;
6121;SDS011;3091;51.506;7.672;2024-02-15T03:13:23;35.27;;;32.97;;
6121;SDS011;3091;51.506;7.672;2024-02-15T03:15:49;39.47;;;37.07;;
6121;SDS011;3091;51.506;7.672;2024-02-15T03:18:16;38.90;;;36.60;;
6121;SDS011;3091;51.506;7.672;2024-02-15T03:20:42;37.33;;;34.97;;
6121;SDS011;3091;51.506;7.672;2024-02-15T03:23:08;38.47;;;35.90;;
6121;SDS011;3091;51.506;7.672;2024-02-15T03:25:36;35.67;;;33.37;;
6121;SDS011;3091;51.506;7.672;2024-02-15T03:28:02;34.67;;;32.03;;
6121;SDS011;3091;51.506;7.672;2024-02-15T03:30:29;36.60;;;34.17;;
6121;SDS011;3091;51.506;7.672;2024-02-15T03:32:56;33.17;;;31.07;;
6121;SDS011;3091;51.506;7.672;2024-02-15T03:35:24;32.27;;;30.17;;
6121;SDS011;3091;51.506;7.672;2024-02-15T03:37:50;33.17;;;31.07;;
6121;SDS011;3091;51.506;7.672;2024-02-15T03:40:17;32.50;;;30.40;;
6121;SDS011;3091;51.506;7.672;2024-02-15T03:42:43;36.33;;;34.03;;
6121;SDS011;3091;51.506;7.672;2024-02-15T03:45:09;35.50;;;33.20;;
6121;SDS011;3091;51.506;7.672;2024-02-15T03:47:36;35.53;;;33.23;;
6121;SDS011;3091;51.506;7.672;2024-02-15T03:50:02;35.60;;;33.30;;
6121;SDS011;3091;51.506;7.672;2024-02-15T03:52:30;31.20;;;29.13;;
6121;SDS011;3091;51.506;7.672;2024-02-15T03:54:56;32.80;;;30.70;;
6121;SDS011;3091;51.506;7.672;2024-02-15T03:57:23;34.53;;;32.23;;
6121;SDS011;3091;51.506;7.672;2024-02-15T03:59:49;33.83;;;31.67;;
6121;SDS011;3091;51.506;7.672;2024-02-15T04:02:19;34.87;;;32.47;;
6121;SDS011;3091;51.506;7.672;2024-02-15T04:04:46;32.53;;;30.33;;
6121;SDS011;3091;51.506;7.672;2024-02-15T04:07:18;35.40;;;32.83;;
6121;SDS011;3091;51.506;7.672;2024-02-15T04:09:45;35.60;;;32.80;;
6121;SDS011;3091;51.506;7.672;2024-02-15T04:12:11;34.63;;;32.07;;
6121;SDS011;3091;51.506;7.672;2024-02-15T04:14:38;32.60;;;30.40;;
6121;SDS011;3091;51.506;7.672;2024-02-15T04:17:04;36.57;;;34.00;;
6121;SDS011;3091;51.506;7.672;2024-02-15T04:19:31;31.63;;;29.50;;
6121;SDS011;3091;51.506;7.672;2024-02-15T04:21:57;35.47;;;32.90;;
6121;SDS011;3091;51.506;7.672;2024-02-15T04:24:24;32.50;;;30.40;;
6121;SDS011;3091;51.506;7.672;2024-02-15T04:26:50;29.10;;;27.10;;
6121;SDS011;3091;51.506;7.672;2024-02-15T04:29:17;29.40;;;27.40;;
6121;SDS011;3091;51.506;7.672;2024-02-15T04:31:45;31.73;;;29.33;;
6121;SDS011;3091;51.506;7.672;2024-02-15T04:34:14;29.80;;;27.80;;
6121;SDS011;3091;51.506;7.672;2024-02-15T04:36:40;31.37;;;29.20;;
6121;SDS011;3091;51.506;7.672;2024-02-15T04:39:10;31.93;;;29.80;;
6121;SDS011;3091;51.506;7.672;2024-02-15T04:41:43;30.00;;;27.80;;
6121;SDS011;3091;51.506;7.672;2024-02-15T04:44:11;32.43;;;30.20;;
6121;SDS011;3091;51.506;7.672;2024-02-15T04:46:37;27.67;;;25.77;;
6121;SDS011;3091;51.506;7.672;2024-02-15T04:49:04;28.60;;;26.70;;
6121;SDS011;3091;51.506;7.672;2024-02-15T04:51:31;26.63;;;24.93;;
6121;SDS011;3091;51.506;7.672;2024-02-15T04:53:57;25.70;;;23.83;;
6121;SDS011;3091;51.506;7.672;2024-02-15T04:56:23;25.73;;;24.07;;
6121;SDS011;3091;51.506;7.672;2024-02-15T04:58:49;24.43;;;22.77;;
6121;SDS011;3091;51.506;7.672;2024-02-15T05:01:16;24.37;;;22.87;;
6121;SDS011;3091;51.506;7.672;2024-02-15T05:03:43;25.33;;;23.63;;
6121;SDS011;3091;51.506;7.672;2024-02-15T05:06:09;22.67;;;21.17;;
6121;SDS011;3091;51.506;7.672;2024-02-15T05:08:38;22.17;;;20.77;;
6121;SDS011;3091;51.506;7.672;2024-02-15T05:11:16;21.97;;;20.57;;
6121;SDS011;3091;51.506;7.672;2024-02-15T05:13:46;23.70;;;22.17;;
6121;SDS011;3091;51.506;7.672;2024-02-15T05:16:12;21.83;;;20.43;;
6121;SDS011;3091;51.506;7.672;2024-02-15T05:18:41;22.03;;;20.43;;
6121;SDS011;3091;51.506;7.672;2024-02-15T05:21:07;20.80;;;19.40;;
6121;SDS011;3091;51.506;7.672;2024-02-15T05:23:36;20.50;;;19.23;;
6121;SDS011;3091;51.506;7.672;2024-02-15T05:26:05;20.07;;;18.87;;
6121;SDS011;3091;51.506;7.672;2024-02-15T05:28:31;18.90;;;17.70;;
6121;SDS011;3091;51.506;7.672;2024-02-15T05:31:10;19.60;;;18.30;;
6121;SDS011;3091;51.506;7.672;2024-02-15T05:33:39;20.93;;;19.63;;
6121;SDS011;3091;51.506;7.672;2024-02-15T05:36:12;19.93;;;18.63;;
6121;SDS011;3091;51.506;7.672;2024-02-15T05:38:39;20.17;;;18.73;;
6121;SDS011;3091;51.506;7.672;2024-02-15T05:41:05;20.80;;;19.50;;
6121;SDS011;3091;51.506;7.672;2024-02-15T05:43:33;20.00;;;18.70;;
6121;SDS011;3091;51.506;7.672;2024-02-15T05:46:01;19.90;;;18.50;;
6121;SDS011;3091;51.506;7.672;2024-02-15T05:48:28;20.03;;;18.63;;
6121;SDS011;3091;51.506;7.672;2024-02-15T05:50:57;19.63;;;18.33;;
6121;SDS011;3091;51.506;7.672;2024-02-15T05:53:25;18.83;;;17.63;;
6121;SDS011;3091;51.506;7.672;2024-02-15T05:55:51;19.40;;;18.10;;
6121;SDS011;3091;51.506;7.672;2024-02-15T05:58:17;18.37;;;17.27;;
6121;SDS011;3091;51.506;7.672;2024-02-15T06:00:43;18.60;;;17.50;;
6121;SDS011;3091;51.506;7.672;2024-02-15T06:03:10;19.57;;;18.37;;
6121;SDS011;3091;51.506;7.672;2024-02-15T06:05:37;22.03;;;20.40;;
6121;SDS011;3091;51.506;7.672;2024-02-15T06:08:04;19.50;;;18.20;;
6121;SDS011;3091;51.506;7.672;2024-02-15T06:10:30;20.17;;;18.77;;
6121;SDS011;3091;51.506;7.672;2024-02-15T06:12:56;19.50;;;18.40;;
6121;SDS011;3091;51.506;7.672;2024-02-15T06:15:28;18.60;;;17.50;;
6121;SDS011;3091;51.506;7.672;2024-02-15T06:17:54;18.77;;;17.67;;
6121;SDS011;3091;51.506;7.672;2024-02-15T06:20:22;18.70;;;17.60;;
6121;SDS011;3091;51.506;7.672;2024-02-15T06:22:50;19.30;;;18.20;;
6121;SDS011;3091;51.506;7.672;2024-02-15T06:25:17;19.50;;;18.20;;
6121;SDS011;3091;51.506;7.672;2024-02-15T06:27:46;18.03;;;17.03;;
6121;SDS011;3091;51.506;7.672;2024-02-15T06:30:13;19.10;;;17.90;;
6121;SDS011;3091;51.506;7.672;2024-02-15T06:32:58;22.70;;;21.20;;
6121;SDS011;3091;51.506;7.672;2024-02-15T06:35:43;21.93;;;20.53;;
6121;SDS011;3091;51.506;7.672;2024-02-15T06:38:28;21.47;;;20.07;;
6121;SDS011;3091;51.506;7.672;2024-02-15T06:41:13;19.77;;;18.47;;
6121;SDS011;3091;51.506;7.672;2024-02-15T06:43:39;21.37;;;19.87;;
6121;SDS011;3091;51.506;7.672;2024-02-15T06:46:08;20.77;;;19.37;;
6121;SDS011;3091;51.506;7.672;2024-02-15T06:48:36;32.07;;;29.77;;
6121;SDS011;3091;51.506;7.672;2024-02-15T06:51:02;34.13;;;31.63;;
6121;SDS011;3091;51.506;7.672;2024-02-15T06:53:31;39.50;;;36.70;;
6121;SDS011;3091;51.506;7.672;2024-02-15T06:55:57;42.97;;;39.77;;
6121;SDS011;3091;51.506;7.672;2024-02-15T06:58:23;47.27;;;43.87;;
6121;SDS011;3091;51.506;7.672;2024-02-15T07:00:49;47.90;;;44.47;;
6121;SDS011;3091;51.506;7.672;2024-02-15T07:03:16;47.13;;;43.83;;
6121;SDS011;3091;51.506;7.672;2024-02-15T07:05:42;48.67;;;45.27;;
6121;SDS011;3091;51.506;7.672;2024-02-15T07:08:08;80.60;;;76.23;;
6121;SDS011;3091;51.506;7.672;2024-02-15T07:10:37;75.00;;;70.80;;
6121;SDS011;3091;51.506;7.672;2024-02-15T07:13:06;54.00;;;50.50;;
6121;SDS011;3091;51.506;7.672;2024-02-15T07:15:35;77.70;;;73.50;;
6121;SDS011;3091;51.506;7.672;2024-02-15T07:18:05;76.63;;;72.33;;
6121;SDS011;3091;51.506;7.672;2024-02-15T07:20:32;77.00;;;72.80;;
6121;SDS011;3091;51.506;7.672;2024-02-15T07:22:58;76.73;;;72.53;;
6121;SDS011;3091;51.506;7.672;2024-02-15T07:25:24;75.10;;;70.90;;
6121;SDS011;3091;51.506;7.672;2024-02-15T07:27:50;73.07;;;68.97;;
6121;SDS011;3091;51.506;7.672;2024-02-15T07:30:17;67.50;;;63.50;;
6121;SDS011;3091;51.506;7.672;2024-02-15T07:32:44;68.17;;;64.17;;
6121;SDS011;3091;51.506;7.672;2024-02-15T07:35:11;71.30;;;67.20;;
6121;SDS011;3091;51.506;7.672;2024-02-15T07:37:39;75.80;;;71.60;;
6121;SDS011;3091;51.506;7.672;2024-02-15T07:40:05;75.77;;;71.57;;
6121;SDS011;3091;51.506;7.672;2024-02-15T07:42:35;75.23;;;71.03;;
6121;SDS011;3091;51.506;7.672;2024-02-15T07:45:02;75.07;;;70.67;;
6121;SDS011;3091;51.506;7.672;2024-02-15T07:47:31;71.90;;;67.90;;
6121;SDS011;3091;51.506;7.672;2024-02-15T07:49:58;74.70;;;70.60;;
6121;SDS011;3091;51.506;7.672;2024-02-15T07:52:25;72.43;;;68.43;;
6121;SDS011;3091;51.506;7.672;2024-02-15T07:54:51;72.03;;;68.03;;
6121;SDS011;3091;51.506;7.672;2024-02-15T07:57:17;71.67;;;67.77;;
6121;SDS011;3091;51.506;7.672;2024-02-15T07:59:43;74.33;;;70.33;;
6121;SDS011;3091;51.506;7.672;2024-02-15T08:02:10;73.90;;;69.90;;
6121;SDS011;3091;51.506;7.672;2024-02-15T08:04:37;68.20;;;64.40;;
6121;SDS011;3091;51.506;7.672;2024-02-15T08:07:06;70.10;;;66.00;;
6121;SDS011;3091;51.506;7.672;2024-02-15T08:09:37;75.07;;;71.07;;
6121;SDS011;3091;51.506;7.672;2024-02-15T08:12:04;79.27;;;75.17;;
6121;SDS011;3091;51.506;7.672;2024-02-15T08:14:32;83.10;;;78.70;;
6121;SDS011;3091;51.506;7.672;2024-02-15T08:16:58;79.00;;;74.90;;
6121;SDS011;3091;51.506;7.672;2024-02-15T08:19:24;79.80;;;75.60;;
6121;SDS011;3091;51.506;7.672;2024-02-15T08:21:53;70.57;;;66.67;;
6121;SDS011;3091;51.506;7.672;2024-02-15T08:24:21;69.03;;;65.23;;
6121;SDS011;3091;51.506;7.672;2024-02-15T08:26:47;71.40;;;67.50;;
6121;SDS011;3091;51.506;7.672;2024-02-15T08:29:16;73.10;;;69.20;;
6121;SDS011;3091;51.506;7.672;2024-02-15T08:31:42;70.70;;;66.80;;
6121;SDS011;3091;51.506;7.672;2024-02-15T08:34:08;75.80;;;71.43;;
6121;SDS011;3091;51.506;7.672;2024-02-15T08:36:39;68.57;;;64.70;;
6121;SDS011;3091;51.506;7.672;2024-02-15T08:39:05;69.70;;;65.70;;
6121;SDS011;3091;51.506;7.672;2024-02-15T08:41:33;66.80;;;63.00;;
6121;SDS011;3091;51.506;7.672;2024-02-15T08:43:59;67.13;;;63.27;;
6121;SDS011;3091;51.506;7.672;2024-02-15T08:46:26;63.23;;;59.53;;
6121;SDS011;3091;51.506;7.672;2024-02-15T08:48:52;61.87;;;58.27;;
6121;SDS011;3091;51.506;7.672;2024-02-15T08:51:21;64.47;;;60.37;;
6121;SDS011;3091;51.506;7.672;2024-02-15T08:53:47;60.57;;;56.97;;
6121;SDS011;3091;51.506;7.672;2024-02-15T08:56:13;60.50;;;57.00;;
6121;SDS011;3091;51.506;7.672;2024-02-15T08:58:40;60.10;;;56.60;;
6121;SDS011;3091;51.506;7.672;2024-02-15T09:01:10;58.37;;;55.07;;
6121;SDS011;3091;51.506;7.672;2024-02-15T09:03:38;64.27;;;60.60;;
6121;SDS011;3091;51.506;7.672;2024-02-15T09:06:04;65.50;;;61.90;;
6121;SDS011;3091;51.506;7.672;2024-02-15T09:08:32;69.03;;;65.33;;
6121;SDS011;3091;51.506;7.672;2024-02-15T09:10:59;79.93;;;75.63;;
6121;SDS011;3091;51.506;7.672;2024-02-15T09:13:26;93.07;;;88.40;;
6121;SDS011;3091;51.506;7.672;2024-02-15T09:15:52;95.60;;;90.47;;
6121;SDS011;3091;51.506;7.672;2024-02-15T09:18:18;99.47;;;94.57;;
6121;SDS011;3091;51.506;7.672;2024-02-15T09:20:48;95.07;;;90.27;;
6121;SDS011;3091;51.506;7.672;2024-02-15T09:23:21;93.00;;;88.30;;
6121;SDS011;3091;51.506;7.672;2024-02-15T09:25:49;93.53;;;88.73;;
6121;SDS011;3091;51.506;7.672;2024-02-15T09:28:19;88.77;;;84.17;;
6121;SDS011;3091;51.506;7.672;2024-02-15T09:30:47;92.13;;;87.43;;
6121;SDS011;3091;51.506;7.672;2024-02-15T09:33:13;90.67;;;86.03;;
6121;SDS011;3091;51.506;7.672;2024-02-15T09:35:39;92.90;;;88.20;;
6121;SDS011;3091;51.506;7.672;2024-02-15T09:38:05;89.30;;;84.70;;
6121;SDS011;3091;51.506;7.672;2024-02-15T09:40:36;93.23;;;88.47;;
6121;SDS011;3091;51.506;7.672;2024-02-15T09:43:03;89.30;;;84.70;;
6121;SDS011;3091;51.506;7.672;2024-02-15T09:45:29;85.90;;;81.30;;
6121;SDS011;3091;51.506;7.672;2024-02-15T09:47:56;86.40;;;81.90;;
6121;SDS011;3091;51.506;7.672;2024-02-15T09:50:25;85.53;;;80.83;;
6121;SDS011;3091;51.506;7.672;2024-02-15T09:52:52;86.23;;;81.63;;
6121;SDS011;3091;51.506;7.672;2024-02-15T09:55:19;83.50;;;79.10;;
6121;SDS011;3091;51.506;7.672;2024-02-15T09:57:48;83.07;;;78.57;;
6121;SDS011;3091;51.506;7.672;2024-02-15T10:00:16;85.73;;;81.13;;
6121;SDS011;3091;51.506;7.672;2024-02-15T10:02:50;81.97;;;77.30;;
6121;SDS011;3091;51.506;7.672;2024-02-15T10:05:20;78.67;;;74.37;;
6121;SDS011;3091;51.506;7.672;2024-02-15T10:07:48;75.53;;;71.37;;
6121;SDS011;3091;51.506;7.672;2024-02-15T10:12:50;76.57;;;72.47;;
6121;SDS011;3091;51.506;7.672;2024-02-15T10:17:55;66.53;;;62.83;;
6121;SDS011;3091;51.506;7.672;2024-02-15T10:20:21;65.43;;;61.83;;
6121;SDS011;3091;51.506;7.672;2024-02-15T10:22:51;57.63;;;54.40;;
6121;SDS011;3091;51.506;7.672;2024-02-15T10:25:17;55.67;;;52.47;;
6121;SDS011;3091;51.506;7.672;2024-02-15T10:27:44;46.60;;;43.90;;
6121;SDS011;3091;51.506;7.672;2024-02-15T10:30:19;44.93;;;42.33;;
6121;SDS011;3091;51.506;7.672;2024-02-15T10:32:46;44.57;;;42.07;;
6121;SDS011;3091;51.506;7.672;2024-02-15T10:35:20;43.57;;;41.27;;
6121;SDS011;3091;51.506;7.672;2024-02-15T10:37:47;41.30;;;39.10;;
6121;SDS011;3091;51.506;7.672;2024-02-15T10:40:16;37.10;;;35.10;;
6121;SDS011;3091;51.506;7.672;2024-02-15T10:42:43;30.57;;;29.07;;
6121;SDS011;3091;51.506;7.672;2024-02-15T10:45:11;31.80;;;30.10;;
6121;SDS011;3091;51.506;7.672;2024-02-15T10:47:39;29.33;;;27.83;;
6121;SDS011;3091;51.506;7.672;2024-02-15T10:50:06;27.53;;;25.77;;
6121;SDS011;3091;51.506;7.672;2024-02-15T10:52:32;25.60;;;24.20;;
6121;SDS011;3091;51.506;7.672;2024-02-15T10:55:04;25.67;;;24.43;;
6121;SDS011;3091;51.506;7.672;2024-02-15T10:57:34;25.63;;;24.10;;
6121;SDS011;3091;51.506;7.672;2024-02-15T11:00:04;25.20;;;24.00;;
6121;SDS011;3091;51.506;7.672;2024-02-15T11:02:42;25.37;;;24.17;;
6121;SDS011;3091;51.506;7.672;2024-02-15T11:05:09;25.23;;;24.03;;
6121;SDS011;3091;51.506;7.672;2024-02-15T11:07:38;24.33;;;23.23;;
6121;SDS011;3091;51.506;7.672;2024-02-15T11:10:05;24.03;;;22.93;;
6121;SDS011;3091;51.506;7.672;2024-02-15T11:12:33;24.23;;;23.03;;
6121;SDS011;3091;51.506;7.672;2024-02-15T11:14:59;23.63;;;22.63;;
6121;SDS011;3091;51.506;7.672;2024-02-15T11:20:10;23.47;;;22.50;;
6121;SDS011;3091;51.506;7.672;2024-02-15T11:22:38;23.43;;;22.40;;
6121;SDS011;3091;51.506;7.672;2024-02-15T11:25:04;22.00;;;21.10;;
6121;SDS011;3091;51.506;7.672;2024-02-15T11:27:34;22.50;;;21.60;;
6121;SDS011;3091;51.506;7.672;2024-02-15T11:30:03;23.27;;;22.03;;
6121;SDS011;3091;51.506;7.672;2024-02-15T11:35:17;22.67;;;21.77;;
6121;SDS011;3091;51.506;7.672;2024-02-15T11:43:09;22.60;;;21.70;;
6121;SDS011;3091;51.506;7.672;2024-02-15T11:45:36;22.10;;;21.20;;
6121;SDS011;3091;51.506;7.672;2024-02-15T11:48:11;22.00;;;21.20;;
6121;SDS011;3091;51.506;7.672;2024-02-15T11:50:38;23.03;;;21.57;;
6121;SDS011;3091;51.506;7.672;2024-02-15T11:53:05;21.40;;;20.60;;
6121;SDS011;3091;51.506;7.672;2024-02-15T11:55:35;21.57;;;20.77;;
6121;SDS011;3091;51.506;7.672;2024-02-15T11:58:02;21.23;;;20.43;;
6121;SDS011;3091;51.506;7.672;2024-02-15T12:00:34;21.40;;;20.60;;
6121;SDS011;3091;51.506;7.672;2024-02-15T12:03:20;21.83;;;20.87;;
6121;SDS011;3091;51.506;7.672;2024-02-15T12:06:05;20.37;;;19.47;;
6121;SDS011;3091;51.506;7.672;2024-02-15T12:08:52;19.87;;;19.17;;
6121;SDS011;3091;51.506;7.672;2024-02-15T12:11:37;22.20;;;21.30;;
6121;SDS011;3091;51.506;7.672;2024-02-15T12:14:22;20.00;;;19.20;;
6121;SDS011;3091;51.506;7.672;2024-02-15T12:17:08;20.10;;;19.30;;
6121;SDS011;3091;51.506;7.672;2024-02-15T12:19:53;20.07;;;19.27;;
6121;SDS011;3091;51.506;7.672;2024-02-15T12:22:28;20.63;;;19.83;;
6121;SDS011;3091;51.506;7.672;2024-02-15T12:24:56;20.43;;;19.63;;
6121;SDS011;3091;51.506;7.672;2024-02-15T12:27:23;19.70;;;19.00;;
6121;SDS011;3091;51.506;7.672;2024-02-15T12:30:01;20.00;;;19.30;;
6121;SDS011;3091;51.506;7.672;2024-02-15T12:32:30;19.93;;;19.03;;
6121;SDS011;3091;51.506;7.672;2024-02-15T12:35:12;19.50;;;18.80;;
6121;SDS011;3091;51.506;7.672;2024-02-15T12:37:48;18.50;;;17.80;;
6121;SDS011;3091;51.506;7.672;2024-02-15T12:40:19;20.20;;;19.50;;
6121;SDS011;3091;51.506;7.672;2024-02-15T12:42:47;19.30;;;18.57;;
6121;SDS011;3091;51.506;7.672;2024-02-15T12:45:20;20.10;;;19.30;;
6121;SDS011;3091;51.506;7.672;2024-02-15T12:47:49;18.70;;;18.00;;
6121;SDS011;3091;51.506;7.672;2024-02-15T12:50:24;18.93;;;18.23;;
6121;SDS011;3091;51.506;7.672;2024-02-15T12:52:53;19.57;;;18.70;;
6121;SDS011;3091;51.506;7.672;2024-02-15T12:55:21;19.00;;;17.93;;
6121;SDS011;3091;51.506;7.672;2024-02-15T12:57:50;19.03;;;18.33;;
6121;SDS011;3091;51.506;7.672;2024-02-15T13:00:18;19.47;;;18.77;;
6121;SDS011;3091;51.506;7.672;2024-02-15T13:02:45;19.10;;;18.40;;
6121;SDS011;3091;51.506;7.672;2024-02-15T13:05:14;18.70;;;18.00;;
6121;SDS011;3091;51.506;7.672;2024-02-15T13:07:40;18.57;;;17.90;;
6121;SDS011;3091;51.506;7.672;2024-02-15T13:10:07;18.80;;;18.20;;
6121;SDS011;3091;51.506;7.672;2024-02-15T13:12:34;19.27;;;18.57;;
6121;SDS011;3091;51.506;7.672;2024-02-15T13:15:04;18.17;;;17.57;;
6121;SDS011;3091;51.506;7.672;2024-02-15T13:17:32;17.40;;;16.80;;
6121;SDS011;3091;51.506;7.672;2024-02-15T13:20:01;18.80;;;18.10;;
6121;SDS011;3091;51.506;7.672;2024-02-15T13:22:35;17.83;;;17.23;;
6121;SDS011;3091;51.506;7.672;2024-02-15T13:25:03;18.10;;;17.50;;
6121;SDS011;3091;51.506;7.672;2024-02-15T13:27:29;18.60;;;18.00;;
6121;SDS011;3091;51.506;7.672;2024-02-15T13:29:56;17.83;;;17.23;;
6121;SDS011;3091;51.506;7.672;2024-02-15T13:32:22;17.73;;;17.13;;
6121;SDS011;3091;51.506;7.672;2024-02-15T13:34:48;18.53;;;17.93;;
6121;SDS011;3091;51.506;7.672;2024-02-15T13:37:19;18.10;;;17.40;;
6121;SDS011;3091;51.506;7.672;2024-02-15T13:39:48;19.17;;;18.37;;
6121;SDS011;3091;51.506;7.672;2024-02-15T13:42:15;19.63;;;18.83;;
6121;SDS011;3091;51.506;7.672;2024-02-15T13:44:42;18.83;;;18.23;;
6121;SDS011;3091;51.506;7.672;2024-02-15T13:47:08;18.40;;;17.70;;
6121;SDS011;3091;51.506;7.672;2024-02-15T13:49:36;17.43;;;16.93;;
6121;SDS011;3091;51.506;7.672;2024-02-15T13:52:02;18.00;;;17.40;;
6121;SDS011;3091;51.506;7.672;2024-02-15T13:54:29;17.80;;;17.17;;
6121;SDS011;3091;51.506;7.672;2024-02-15T13:56:56;18.57;;;17.70;;
6121;SDS011;3091;51.506;7.672;2024-02-15T13:59:22;18.37;;;17.70;;
6121;SDS011;3091;51.506;7.672;2024-02-15T14:01:48;18.60;;;18.00;;
6121;SDS011;3091;51.506;7.672;2024-02-15T14:04:15;18.83;;;18.13;;
6121;SDS011;3091;51.506;7.672;2024-02-15T14:06:44;19.07;;;18.40;;
6121;SDS011;3091;51.506;7.672;2024-02-15T14:09:10;20.10;;;19.40;;
6121;SDS011;3091;51.506;7.672;2024-02-15T14:11:37;19.50;;;18.60;;
6121;SDS011;3091;51.506;7.672;2024-02-15T14:14:04;19.07;;;18.27;;
6121;SDS011;3091;51.506;7.672;2024-02-15T14:16:30;18.10;;;17.50;;
6121;SDS011;3091;51.506;7.672;2024-02-15T14:18:56;19.50;;;18.80;;
6121;SDS011;3091;51.506;7.672;2024-02-15T14:21:22;19.10;;;18.40;;
6121;SDS011;3091;51.506;7.672;2024-02-15T14:23:50;18.33;;;17.73;;
6121;SDS011;3091;51.506;7.672;2024-02-15T14:26:16;20.83;;;19.77;;
6121;SDS011;3091;51.506;7.672;2024-02-15T14:28:42;19.33;;;18.27;;
6121;SDS011;3091;51.506;7.672;2024-02-15T14:31:12;18.40;;;17.70;;
6121;SDS011;3091;51.506;7.672;2024-02-15T14:33:56;18.53;;;17.90;;
6121;SDS011;3091;51.506;7.672;2024-02-15T14:36:30;18.00;;;17.40;;
6121;SDS011;3091;51.506;7.672;2024-02-15T14:38:58;19.73;;;18.93;;
6121;SDS011;3091;51.506;7.672;2024-02-15T14:41:25;19.07;;;18.37;;
6121;SDS011;3091;51.506;7.672;2024-02-15T14:43:51;19.33;;;18.63;;
6121;SDS011;3091;51.506;7.672;2024-02-15T14:46:19;19.93;;;19.23;;
6121;SDS011;3091;51.506;7.672;2024-02-15T14:48:45;18.67;;;18.07;;
6121;SDS011;3091;51.506;7.672;2024-02-15T14:51:14;19.90;;;19.00;;
6121;SDS011;3091;51.506;7.672;2024-02-15T14:53:43;20.87;;;19.90;;
6121;SDS011;3091;51.506;7.672;2024-02-15T14:56:09;19.50;;;18.80;;
6121;SDS011;3091;51.506;7.672;2024-02-15T14:58:35;19.97;;;18.87;;
6121;SDS011;3091;51.506;7.672;2024-02-15T15:01:01;20.17;;;19.47;;
6121;SDS011;3091;51.506;7.672;2024-02-15T15:03:30;20.30;;;19.40;;
6121;SDS011;3091;51.506;7.672;2024-02-15T15:05:58;19.87;;;19.07;;
6121;SDS011;3091;51.506;7.672;2024-02-15T15:08:42;20.10;;;19.37;;